Anderson, Indiana
Current Conditions -  °F | °C
As of 3:53 PM on Monday 24 Nov 2014 (Local Time) from KMIE Reporting Station
Overcast Overcast  
Wind Chill: 28°   Ceiling: 2000
Heat Index: 39°   Visibility: 9mi
Dew Point: 32°   Wind: 24mph
Humidity: 76%   Direction: 250°WSW
Pressure: 29.63"   Gusts: 32mph
Location:  40.1°N, 85.68°W
Report Text: KMIE 242053Z 25021G28KT 9SM OVC020 04/00 A2963 RMK AO2 PK WND 25028/2052 SLP031 T00390000 53043
Loading
Personal Weather Stations






























Interactive Weather Map New forecast layout! Learn more

10-Day Weather Forecast

Advertisements
Track Severe Weather on mobile